メインページ
METAR-TAF:

METAR-TAF

空港 :

バンクーバー, ブリティッシュコロンビア州, カナダ

バンクーバー国際空港

緯度: 49-11N, 経度: 123-10W, 海抜: 3m

現時点の気象観測

当レポートは42分前の19:00(UTC)に作成
南/南西の風 12kt、最大17ktの突風を伴う、南/南東から南西の間で変化する
気温 9°C
湿度 71%
気圧 1019 hPa
視程: 48.3km
高度3000ftの雲はほとんどない
高度7000ftの雲は散在している
高度9000ftの千切れ雲あり
高度15000ftの千切れ雲あり
高度25000ftの曇り

METAR: CYVR 251900Z 20012G17KT 150V230 30SM FEW030 SCT070 BKN090 BKN150 OVC250 09/04 A3009 RMK CU1AC3AC2AC1CI1 SLP190

時間: 12:42 (19:42 UTC)

予報

当レポートは2時間4分前の17:38(UTC)に作成
予報は25日の 18時(UTC)から 26日の 24時(UTC)まで有効
の風 8kt
視程: 10km
高度1500ftの雲はほとんどない
高度10000ftの千切れ雲あり
25日の 2000時(UTC)から
南/南東の風 10kt
視程: 10km
高度4000ftの雲は散在している
高度10000ftの雲は散在している
26日の 0300時(UTC)から
東/南東の風 8kt
視程: 10km
高度5000ftの千切れ雲あり
高度16000ftの曇り
26日の 0900時(UTC)から
の風 10kt
視程: 10km
高度2500ftの千切れ雲あり
高度12000ftの曇り
26日の 1400時(UTC)から
の風 10kt
視程: 10km
高度2000ftの曇り
弱いにわか雨

TAF: CYVR 251738Z 2518/2624 17008KT P6SM FEW015 BKN100 FM252000 16010KT P6SM SCT040 SCT100 FM260300 12008KT P6SM BKN050 OVC160 FM260900 08010KT P6SM BKN025 OVC120 FM261400 09010KT P6SM -SHRA OVC020 RMK NXT FCST BY 252100Z

4,000以上の空港の気象観測と天気予報(METAR報とTAF報)

利用可能な観測所は地図上に黄色い丸と赤い丸で示す。

丸の上にカーソルを重ねると観測所名を参照できる。

次にクリックすると気象観測と天気予報を参照できる。

マップの切り替え:黒色「×」印の緑ボタンをクリックして拡大、「-」印の緑ボタンをクリックして縮小、緑色の三角印をクリックして隣りの地図に切り替え


METAR-TAF: